Time;durP1;ratioP1;P1;durP2;ratioP2;P2;SDS_P1;SDS_P2;PMS_P1;PMS_P2;Temp;Humidity;BMP_temperature;BMP_pressure;BME280_temperature;BME280_humidity;BME280_pressure;Samples;Min_cycle;Max_cycle;Signal;HPM_P1;HPM_P2
2021/03/15 00:01:11;;;;;;;;;;;;;;;2.59;78.62;99979.77;1659248;86;20264;-76
2021/03/15 00:03:56;;;;;;;;;;;;;;;2.59;78.69;99980.19;1659251;86;20285;-77
2021/03/15 00:06:40;;;;;;;;;;;;;;;2.58;78.71;99975.92;1643747;85;20276;-77
2021/03/15 00:09:25;;;;;;;;;;;;;;;2.58;78.69;99979.76;1659238;86;20481;-77
2021/03/15 00:12:09;;;;;;;;;;;;;;;2.55;78.73;99979.31;1676768;85;20273;-77
2021/03/15 00:14:54;;;;;;;;;;;;;;;2.54;78.65;99979.30;1687001;85;20798;-77
2021/03/15 00:17:38;;;;;;;;;;;;;;;2.50;78.66;99979.70;1663680;85;20394;-77
2021/03/15 00:20:23;;;;;;;;;;;;;;;2.49;78.72;99979.27;1678376;83;20476;-77
2021/03/15 00:23:07;;;;;;;;;;;;;;;2.46;78.68;99977.13;1660227;84;20193;-77
2021/03/15 00:25:52;;;;;;;;;;;;;;;2.46;78.72;99980.95;1704216;84;20263;-77
2021/03/15 00:28:36;;;;;;;;;;;;;;;2.42;78.75;99978.80;1659106;85;20449;-77
2021/03/15 00:31:21;;;;;;;;;;;;;;;2.40;78.78;99973.25;1659318;86;20255;-77
2021/03/15 00:34:05;;;;;;;;;;;;;;;2.40;78.80;99973.25;1659865;85;20456;-77
2021/03/15 00:36:49;;;;;;;;;;;;;;;2.39;78.83;99976.23;1676364;85;20565;-77
2021/03/15 00:39:34;;;;;;;;;;;;;;;2.38;78.84;99968.56;1689425;84;20297;-77
2021/03/15 00:42:18;;;;;;;;;;;;;;;2.39;78.91;99973.67;1681058;83;20275;-77
2021/03/15 00:45:05;;;;;;;;;;;;;;;2.38;78.85;99969.42;1664244;86;20200;-77
2021/03/15 00:47:50;;;;;;;;;;;;;;;2.37;78.91;99969.41;1664842;83;20263;-77
2021/03/15 00:50:42;;;;;;;;;;;;;;;2.38;78.94;99968.56;1673547;83;20424;-77
2021/03/15 00:53:26;;;;;;;;;;;;;;;2.36;78.85;99963.87;1666362;83;20252;-77
2021/03/15 00:56:10;;;;;;;;;;;;;;;2.33;78.84;99964.70;1664111;84;20274;-77
2021/03/15 00:58:55;;;;;;;;;;;;;;;2.31;78.92;99962.14;1670565;83;20264;-77
2021/03/15 01:01:40;;;;;;;;;;;;;;;2.29;78.85;99963.83;1670457;84;20173;-77
2021/03/15 01:04:25;;;;;;;;;;;;;;;2.27;78.86;99967.22;1668037;84;20273;-77
2021/03/15 01:07:10;;;;;;;;;;;;;;;2.23;78.88;99967.61;1664312;84;20273;-77
2021/03/15 01:09:55;;;;;;;;;;;;;;;2.22;78.90;99962.50;1664208;86;20275;-77
2021/03/15 01:12:39;;;;;;;;;;;;;;;2.21;78.90;99964.20;1669747;83;20277;-77
2021/03/15 01:15:24;;;;;;;;;;;;;;;2.20;78.83;99958.66;1692100;84;20457;-77
2021/03/15 01:18:09;;;;;;;;;;;;;;;2.16;78.83;99948.42;1680373;84;20187;-77
2021/03/15 01:20:53;;;;;;;;;;;;;;;2.12;78.83;99950.10;1671966;84;20271;-77
2021/03/15 01:23:38;;;;;;;;;;;;;;;2.10;78.85;99947.96;1664252;86;20297;-77
2021/03/15 01:26:22;;;;;;;;;;;;;;;2.07;78.90;99942.02;1671462;83;20168;-77
2021/03/15 01:29:07;;;;;;;;;;;;;;;2.04;78.85;99934.34;1664103;85;20279;-77
2021/03/15 01:31:52;;;;;;;;;;;;;;;2.01;78.90;99935.17;1676318;83;20281;-77
2021/03/15 01:34:36;;;;;;;;;;;;;;;1.99;78.88;99941.95;1664452;83;20533;-77
2021/03/15 01:37:21;;;;;;;;;;;;;;;1.94;78.87;99934.27;1676449;84;20263;-77
2021/03/15 01:40:06;;;;;;;;;;;;;;;1.92;78.91;99937.23;1639685;86;20303;-77
2021/03/15 01:42:51;;;;;;;;;;;;;;;1.89;78.85;99935.08;1659152;86;20543;-77
2021/03/15 01:45:36;;;;;;;;;;;;;;;1.84;78.82;99935.03;1670682;83;20313;-76
2021/03/15 01:48:21;;;;;;;;;;;;;;;1.78;78.83;99933.70;1658667;83;20295;-76
2021/03/15 01:51:05;;;;;;;;;;;;;;;1.75;78.80;99931.55;1635243;86;20295;-76
2021/03/15 01:53:50;;;;;;;;;;;;;;;1.71;78.83;99923.45;1665381;83;20293;-76
2021/03/15 01:56:36;;;;;;;;;;;;;;;1.65;78.77;99921.70;1653921;85;20308;-76
2021/03/15 01:59:21;;;;;;;;;;;;;;;1.61;78.84;99915.72;1658831;83;20305;-76
2021/03/15 02:02:05;;;;;;;;;;;;;;;1.57;78.83;99914.41;1649377;86;20307;-76
2021/03/15 02:04:50;;;;;;;;;;;;;;;1.53;78.85;99911.02;1657610;86;20705;-76
2021/03/15 02:07:34;;;;;;;;;;;;;;;1.50;78.83;99907.58;1624660;86;20307;-76
2021/03/15 02:10:19;;;;;;;;;;;;;;;1.46;78.83;99905.84;1664599;83;20329;-76
2021/03/15 02:13:27;;;;;;;;;;;;;;;1.43;78.91;99906.67;1625080;86;20232;-77
2021/03/15 02:16:24;;;;;;;;;;;;;;;1.39;78.91;99904.93;1657897;86;20298;-76
2021/03/15 02:19:29;;;;;;;;;;;;;;;1.33;78.76;99905.72;1664324;83;20327;-76
2021/03/15 02:22:32;;;;;;;;;;;;;;;1.24;78.74;99899.27;1664057;83;20322;-76
2021/03/15 02:25:32;;;;;;;;;;;;;;;1.18;78.78;99903.02;1654326;85;20286;-76
2021/03/15 02:28:54;;;;;;;;;;;;;;;1.14;78.84;99901.70;1682496;83;20321;-76
2021/03/15 02:31:58;;;;;;;;;;;;;;;1.08;78.84;99900.36;1671058;85;20313;-76
2021/03/15 02:34:58;;;;;;;;;;;;;;;1.01;78.90;99910.07;1669459;83;20299;-76
2021/03/15 02:37:45;;;;;;;;;;;;;;;0.95;78.86;99907.89;1684812;85;20305;-76
2021/03/15 02:40:36;;;;;;;;;;;;;;;0.90;78.90;99901.04;1670313;83;20627;-76
2021/03/15 02:43:24;;;;;;;;;;;;;;;0.89;79.02;99904.42;1671508;83;20668;-76
2021/03/15 02:46:11;;;;;;;;;;;;;;;0.88;79.08;99904.84;1677676;84;20501;-76
2021/03/15 02:49:00;;;;;;;;;;;;;;;0.87;79.09;99900.59;1688442;83;20303;-76
2021/03/15 02:51:46;;;;;;;;;;;;;;;0.88;79.08;99903.98;1678181;84;20314;-76
2021/03/15 02:54:32;;;;;;;;;;;;;;;0.87;79.06;99905.67;1693953;84;20394;-76
2021/03/15 02:57:19;;;;;;;;;;;;;;;0.87;79.12;99904.82;1693427;83;20302;-76
2021/03/15 03:00:06;;;;;;;;;;;;;;;0.87;79.14;99905.67;1684640;83;20410;-76
2021/03/15 03:02:51;;;;;;;;;;;;;;;0.87;79.13;99906.09;1672977;84;20305;-76
2021/03/15 03:05:36;;;;;;;;;;;;;;;0.86;79.02;99910.33;1703232;83;20299;-76
2021/03/15 03:08:21;;;;;;;;;;;;;;;0.83;79.00;99914.53;1680697;84;20311;-76
2021/03/15 03:11:07;;;;;;;;;;;;;;;0.82;79.09;99920.45;1684441;84;20292;-77
2021/03/15 03:13:52;;;;;;;;;;;;;;;0.80;79.09;99917.89;1698372;84;20292;-77
2021/03/15 03:16:38;;;;;;;;;;;;;;;0.78;79.12;99919.56;1681202;84;20607;-77
2021/03/15 03:19:23;;;;;;;;;;;;;;;0.78;79.14;99923.38;1696027;84;20163;-77
2021/03/15 03:22:08;;;;;;;;;;;;;;;0.77;79.18;99918.27;1686186;84;20306;-77
2021/03/15 03:24:54;;;;;;;;;;;;;;;0.76;79.14;99920.38;1680296;83;20275;-77
2021/03/15 03:27:41;;;;;;;;;;;;;;;0.74;79.16;99919.50;1680464;84;20301;-77
2021/03/15 03:30:31;;;;;;;;;;;;;;;0.76;79.24;99924.20;1675157;83;20316;-77
2021/03/15 03:33:17;;;;;;;;;;;;;;;0.77;79.27;99922.09;1689548;84;20306;-77
2021/03/15 03:36:02;;;;;;;;;;;;;;;0.77;79.26;99923.36;1690883;84;20330;-77
2021/03/15 03:38:47;;;;;;;;;;;;;;;0.75;79.21;99923.76;1690477;83;20317;-77
2021/03/15 03:41:31;;;;;;;;;;;;;;;0.74;79.28;99920.36;1683152;83;20310;-77
2021/03/15 03:44:16;;;;;;;;;;;;;;;0.75;79.24;99916.13;1706845;83;20301;-77
2021/03/15 03:47:01;;;;;;;;;;;;;;;0.72;79.24;99925.84;1691352;83;20309;-77
2021/03/15 03:49:46;;;;;;;;;;;;;;;0.71;79.24;99916.92;1691253;83;20304;-77
2021/03/15 03:52:31;;;;;;;;;;;;;;;0.69;79.25;99927.50;1692094;83;20319;-77
2021/03/15 03:55:16;;;;;;;;;;;;;;;0.69;79.32;99920.72;1701957;83;20310;-77
2021/03/15 03:58:02;;;;;;;;;;;;;;;0.70;79.43;99921.58;1677233;84;20315;-77
2021/03/15 04:00:47;;;;;;;;;;;;;;;0.73;79.48;99925.42;1683441;83;20285;-77
2021/03/15 04:03:33;;;;;;;;;;;;;;;0.76;79.49;99928.02;1698402;83;20294;-77
2021/03/15 04:06:18;;;;;;;;;;;;;;;0.80;79.59;99925.94;1689807;83;20273;-77
2021/03/15 04:09:14;;;;;;;;;;;;;;;0.84;79.63;99926.00;1702231;83;20317;-77
2021/03/15 04:12:02;;;;;;;;;;;;;;;0.91;79.66;99930.33;1683498;83;20317;-78
2021/03/15 04:14:52;;;;;;;;;;;;;;;0.94;79.63;99925.27;1680781;83;20541;-78
2021/03/15 04:17:40;;;;;;;;;;;;;;;0.98;79.67;99929.56;1680222;83;20289;-77
2021/03/15 04:20:35;;;;;;;;;;;;;;;1.02;79.64;99929.18;1685474;83;20321;-77
2021/03/15 04:23:24;;;;;;;;;;;;;;;1.04;79.67;99930.02;1697534;83;20289;-77
2021/03/15 04:26:08;;;;;;;;;;;;;;;1.10;79.78;99934.33;1682017;83;20316;-77
2021/03/15 04:28:54;;;;;;;;;;;;;;;1.15;79.82;99937.36;1685414;83;20315;-77
2021/03/15 04:31:39;;;;;;;;;;;;;;;1.19;79.85;99934.02;1690288;83;20294;-77
2021/03/15 04:34:24;;;;;;;;;;;;;;;1.26;79.88;99937.48;1657746;83;20315;-77
2021/03/15 04:37:10;;;;;;;;;;;;;;;1.33;79.91;99936.70;1696695;83;20288;-77
2021/03/15 04:39:54;;;;;;;;;;;;;;;1.40;79.96;99938.90;1688159;83;20303;-77
2021/03/15 04:42:39;;;;;;;;;;;;;;;1.46;79.96;99945.33;1698230;83;20270;-77
2021/03/15 04:45:23;;;;;;;;;;;;;;;1.52;79.95;99951.76;1698221;83;20387;-77
2021/03/15 04:48:08;;;;;;;;;;;;;;;1.57;79.98;99947.53;1681966;83;20293;-77
2021/03/15 04:51:04;;;;;;;;;;;;;;;1.62;80.01;99950.55;1704069;83;20537;-77
2021/03/15 04:53:48;;;;;;;;;;;;;;;1.68;80.01;99951.03;1686452;83;20159;-78
2021/03/15 04:56:36;;;;;;;;;;;;;;;1.75;80.04;99952.80;1650396;83;20275;-78
2021/03/15 04:59:21;;;;;;;;;;;;;;;1.80;80.06;99956.24;1649835;83;20273;-78
2021/03/15 05:02:05;;;;;;;;;;;;;;;1.86;80.06;99953.75;1688929;83;20174;-77
2021/03/15 05:04:51;;;;;;;;;;;;;;;1.93;80.09;99959.75;1696165;83;20277;-77
2021/03/15 05:07:37;;;;;;;;;;;;;;;1.96;80.07;99956.81;1680539;83;20260;-77
2021/03/15 05:10:22;;;;;;;;;;;;;;;2.02;80.07;99960.25;1701822;83;20656;-77
2021/03/15 05:13:07;;;;;;;;;;;;;;;2.05;80.06;99959.85;1676074;83;20500;-77
2021/03/15 05:15:52;;;;;;;;;;;;;;;2.09;80.10;99956.88;1687949;83;20691;-77
2021/03/15 05:18:37;;;;;;;;;;;;;;;2.13;80.13;99957.33;1688835;83;20290;-77
2021/03/15 05:21:22;;;;;;;;;;;;;;;2.17;80.10;99959.06;1690694;83;20276;-77
2021/03/15 05:24:08;;;;;;;;;;;;;;;2.21;80.13;99955.27;1688721;83;20277;-77
2021/03/15 05:26:53;;;;;;;;;;;;;;;2.25;80.12;99962.52;1684179;83;20586;-77
2021/03/15 05:29:39;;;;;;;;;;;;;;;2.27;80.15;99961.69;1638536;85;20320;-77
2021/03/15 05:32:25;;;;;;;;;;;;;;;2.33;80.18;99962.16;1623040;85;20315;-77
2021/03/15 05:35:10;;;;;;;;;;;;;;;2.37;80.18;99956.66;1686008;83;20296;-78
2021/03/15 05:37:55;;;;;;;;;;;;;;;2.42;80.18;99966.47;1634917;85;20297;-78
2021/03/15 05:40:43;;;;;;;;;;;;;;;2.46;80.24;99966.92;1620563;87;20311;-78
2021/03/15 05:43:34;;;;;;;;;;;;;;;2.50;80.23;99961.84;1692261;83;20285;-78
2021/03/15 05:46:43;;;;;;;;;;;;;;;2.53;80.22;99966.11;1692956;83;20325;-78
2021/03/15 05:50:04;;;;;;;;;;;;;;;2.56;80.22;99964.86;1687129;83;20291;-78
2021/03/15 05:53:09;;;;;;;;;;;;;;;2.59;80.24;99965.73;1695685;83;20397;-78
2021/03/15 05:56:15;;;;;;;;;;;;;;;2.63;80.26;99968.70;1701091;83;20298;-78
2021/03/15 05:59:33;;;;;;;;;;;;;;;2.67;80.30;99968.29;1696807;83;20288;-77
2021/03/15 06:02:38;;;;;;;;;;;;;;;2.71;80.31;99965.34;1700171;83;20293;-77
2021/03/15 06:05:28;;;;;;;;;;;;;;;2.76;80.32;99965.80;1694266;83;20678;-77
2021/03/15 06:08:23;;;;;;;;;;;;;;;2.82;80.38;99961.14;1692285;83;20345;-77
2021/03/15 06:11:12;;;;;;;;;;;;;;;2.87;80.36;99962.02;1695578;83;20289;-78
2021/03/15 06:13:57;;;;;;;;;;;;;;;2.89;80.32;99961.17;1693543;83;20253;-78
2021/03/15 06:16:42;;;;;;;;;;;;;;;2.92;80.34;99964.17;1697354;84;20273;-78
2021/03/15 06:19:26;;;;;;;;;;;;;;;2.95;80.38;99968.02;1630864;87;20293;-78
2021/03/15 06:22:11;;;;;;;;;;;;;;;2.99;80.38;99960.80;1635454;85;20271;-79
2021/03/15 06:24:56;;;;;;;;;;;;;;;3.04;80.42;99962.95;1645886;85;20274;-78
2021/03/15 06:27:41;;;;;;;;;;;;;;;3.09;80.41;99968.07;1624227;87;20261;-79
2021/03/15 06:30:26;;;;;;;;;;;;;;;3.13;80.38;99968.48;1613100;88;20286;-78
2021/03/15 06:33:12;;;;;;;;;;;;;;;3.16;80.38;99969.77;1696760;84;20265;-78
2021/03/15 06:36:02;;;;;;;;;;;;;;;3.18;80.39;99974.46;1704118;84;20227;-78
2021/03/15 06:38:47;;;;;;;;;;;;;;;3.22;80.44;99973.62;1687342;83;20259;-78
2021/03/15 06:41:33;;;;;;;;;;;;;;;3.26;80.43;99975.34;1679515;83;20186;-77
2021/03/15 06:44:17;;;;;;;;;;;;;;;3.30;80.45;99975.36;1655899;83;20824;-78
2021/03/15 06:47:02;;;;;;;;;;;;;;;3.37;80.47;99974.09;1683314;83;20739;-78
2021/03/15 06:49:46;;;;;;;;;;;;;;;3.43;80.45;99962.61;1680014;83;20182;-79
2021/03/15 06:52:31;;;;;;;;;;;;;;;3.48;80.48;99959.65;1629290;86;20268;-78
2021/03/15 06:55:15;;;;;;;;;;;;;;;3.54;80.50;99960.52;1624118;87;20262;-78
2021/03/15 06:58:00;;;;;;;;;;;;;;;3.62;80.55;99969.05;1604439;87;20809;-77
2021/03/15 07:00:46;;;;;;;;;;;;;;;3.68;80.45;99968.60;1636426;86;20284;-78
2021/03/15 07:03:31;;;;;;;;;;;;;;;3.73;80.50;99976.70;1684979;83;20524;-79
2021/03/15 07:06:19;;;;;;;;;;;;;;;3.79;80.55;99977.99;1643825;85;20593;-79
2021/03/15 07:09:14;;;;;;;;;;;;;;;3.86;80.52;99983.55;1639432;85;20168;-78
2021/03/15 07:12:03;;;;;;;;;;;;;;;3.92;80.51;99981.42;1617145;87;20278;-79
2021/03/15 07:14:48;;;;;;;;;;;;;;;3.99;80.49;99982.70;1610805;87;20549;-79
2021/03/15 07:17:33;;;;;;;;;;;;;;;4.03;80.44;99982.28;1663777;83;20636;-78
2021/03/15 07:20:18;;;;;;;;;;;;;;;4.09;80.46;99983.98;1688346;83;20249;-79
2021/03/15 07:23:02;;;;;;;;;;;;;;;4.15;80.47;99983.98;1685331;83;20310;-79
2021/03/15 07:25:47;;;;;;;;;;;;;;;4.17;80.37;99993.77;1683104;83;20329;-79
2021/03/15 07:28:31;;;;;;;;;;;;;;;4.18;80.36;99994.19;1635418;85;20299;-79
2021/03/15 07:31:24;;;;;;;;;;;;;;;4.17;80.33;99996.33;1641296;85;20317;-78
2021/03/15 07:34:10;;;;;;;;;;;;;;;4.17;80.32;100001.44;1637497;85;20327;-78
2021/03/15 07:37:01;;;;;;;;;;;;;;;4.16;80.35;99995.47;1642288;85;20636;-78
2021/03/15 07:39:52;;;;;;;;;;;;;;;4.20;80.38;100002.72;1640866;85;20310;-78
2021/03/15 07:42:36;;;;;;;;;;;;;;;4.21;80.38;100000.59;1624059;85;20296;-78
2021/03/15 07:45:43;;;;;;;;;;;;;;;4.22;80.38;99999.30;1645325;85;20354;-78
2021/03/15 07:48:31;;;;;;;;;;;;;;;4.27;80.43;100000.16;1648205;85;20518;-78
2021/03/15 07:51:32;;;;;;;;;;;;;;;4.34;80.50;100003.57;1642403;85;20306;-78
2021/03/15 07:54:22;;;;;;;;;;;;;;;4.43;80.47;100003.56;1647833;85;20165;-78
2021/03/15 07:57:21;;;;;;;;;;;;;;;4.52;80.44;100006.11;1650919;85;20566;-77
2021/03/15 08:00:07;;;;;;;;;;;;;;;4.70;80.65;99994.96;1651953;85;20279;-78
2021/03/15 08:02:51;;;;;;;;;;;;;;;4.95;80.74;100000.88;1665022;85;20167;-78
2021/03/15 08:05:36;;;;;;;;;;;;;;;5.16;80.57;99999.52;1668303;85;20600;-78
2021/03/15 08:08:20;;;;;;;;;;;;;;;5.30;80.48;99996.88;1648809;85;20257;-78
2021/03/15 08:11:06;;;;;;;;;;;;;;;5.43;80.37;99999.80;1653372;85;20495;-79
2021/03/15 08:13:53;;;;;;;;;;;;;;;5.48;80.27;100001.06;1651788;85;20274;-78
2021/03/15 08:16:38;;;;;;;;;;;;;;;5.55;80.29;99997.17;1654075;85;20517;-79
2021/03/15 08:19:24;;;;;;;;;;;;;;;5.60;80.13;100006.98;1655190;85;20277;-78
2021/03/15 08:22:10;;;;;;;;;;;;;;;5.58;80.06;100008.70;1652243;85;20252;-78
2021/03/15 08:24:57;;;;;;;;;;;;;;;5.57;80.11;100011.27;1660601;85;20291;-79
2021/03/15 08:27:42;;;;;;;;;;;;;;;5.56;79.99;100009.57;1661206;85;20284;-78
2021/03/15 08:30:30;;;;;;;;;;;;;;;5.50;79.89;100008.31;1665059;85;20271;-78
2021/03/15 08:33:15;;;;;;;;;;;;;;;5.41;79.91;100009.22;1628069;85;20260;-78
2021/03/15 08:35:59;;;;;;;;;;;;;;;5.29;79.79;100007.98;1652150;85;20569;-78
2021/03/15 08:38:43;;;;;;;;;;;;;;;5.20;79.94;100011.90;1646204;85;20361;-78
2021/03/15 08:41:28;;;;;;;;;;;;;;;5.10;79.85;100010.23;1652520;85;20572;-78
2021/03/15 08:44:16;;;;;;;;;;;;;;;5.02;79.94;100021.78;1687588;83;20325;-78
2021/03/15 08:47:01;;;;;;;;;;;;;;;4.92;79.91;100027.78;1682297;83;20342;-78
2021/03/15 08:49:45;;;;;;;;;;;;;;;4.80;79.95;100022.26;1683832;83;20296;-78
2021/03/15 08:52:35;;;;;;;;;;;;;;;4.72;79.97;100012.88;1687483;83;20305;-78
2021/03/15 08:55:48;;;;;;;;;;;;;;;4.68;80.14;100016.34;1660392;83;20320;-79
2021/03/15 08:58:38;;;;;;;;;;;;;;;4.65;80.22;100010.80;1685983;83;20317;-78
2021/03/15 09:01:28;;;;;;;;;;;;;;;4.68;80.30;100008.66;1628402;86;20201;-77
2021/03/15 09:04:39;;;;;;;;;;;;;;;4.70;80.27;100006.91;1623245;86;20365;-78
2021/03/15 09:07:35;;;;;;;;;;;;;;;4.68;80.18;99998.41;1561671;90;20319;-78
2021/03/15 09:10:27;;;;;;;;;;;;;;;4.70;80.19;100001.79;1582650;88;20399;-78
2021/03/15 09:13:20;;;;;;;;;;;;;;;4.75;80.32;100000.92;1582629;88;20329;-78
2021/03/15 09:16:06;;;;;;;;;;;;;;;4.87;80.45;99993.22;1584017;88;20330;-78
2021/03/15 09:18:54;;;;;;;;;;;;;;;5.04;80.48;99992.31;1582337;88;20454;-78
2021/03/15 09:21:41;;;;;;;;;;;;;;;5.08;80.29;99985.89;1586432;88;20292;-78
2021/03/15 09:24:48;;;;;;;;;;;;;;;5.13;80.31;99986.72;1582812;88;20613;-79
2021/03/15 09:27:44;;;;;;;;;;;;;;;5.22;80.39;99985.37;1567417;88;20610;-79
2021/03/15 09:30:35;;;;;;;;;;;;;;;5.38;80.44;99986.59;1580666;88;20727;-78
2021/03/15 09:33:16;;;;;;;;;;;;;;;5.47;80.43;99986.11;1557276;90;20341;-78
2021/03/15 09:36:01;;;;;;;;;;;;;;;5.65;80.53;99987.72;1584046;88;20328;-78
2021/03/15 09:38:46;;;;;;;;;;;;;;;5.78;80.29;99988.03;1613841;85;20714;-78
2021/03/15 09:41:31;;;;;;;;;;;;;;;5.88;80.29;99983.69;1637381;86;21425;-78
2021/03/15 09:44:24;;;;;;;;;;;;;;;6.01;80.31;99987.91;1647630;85;20327;-78
2021/03/15 09:47:08;;;;;;;;;;;;;;;6.18;80.43;99989.06;1649555;85;20303;-78
2021/03/15 09:49:53;;;;;;;;;;;;;;;6.35;80.18;99979.91;1645719;85;20669;-78
2021/03/15 09:52:38;;;;;;;;;;;;;;;6.44;80.21;99978.53;1650167;85;20571;-78
2021/03/15 09:55:22;;;;;;;;;;;;;;;6.59;80.31;99977.95;1632692;85;20307;-79
2021/03/15 09:58:09;;;;;;;;;;;;;;;6.77;80.32;99986.31;1650684;84;20307;-79
2021/03/15 10:00:54;;;;;;;;;;;;;;;6.83;79.98;99972.12;1652063;85;20275;-79
2021/03/15 10:03:39;;;;;;;;;;;;;;;6.83;79.70;99973.40;1651966;85;20291;-78
2021/03/15 10:06:25;;;;;;;;;;;;;;;6.78;79.69;99983.73;1652249;85;20259;-78
2021/03/15 10:09:09;;;;;;;;;;;;;;;6.74;79.68;99978.67;1636946;85;20296;-79
2021/03/15 10:11:54;;;;;;;;;;;;;;;6.75;79.58;99982.51;1652158;85;20271;-78
2021/03/15 10:14:38;;;;;;;;;;;;;;;6.79;79.64;99979.44;1642867;85;20265;-78
2021/03/15 10:17:23;;;;;;;;;;;;;;;6.84;79.61;99977.23;1652022;85;20259;-78
2021/03/15 10:20:10;;;;;;;;;;;;;;;6.86;79.28;99974.66;1650633;85;20255;-78
2021/03/15 10:22:55;;;;;;;;;;;;;;;6.86;79.38;99981.08;1645160;85;20314;-78
2021/03/15 10:25:40;;;;;;;;;;;;;;;6.87;79.35;99975.92;1647686;85;20294;-78
2021/03/15 10:28:27;;;;;;;;;;;;;;;6.89;79.29;99975.47;1647359;85;20310;-78
2021/03/15 10:31:13;;;;;;;;;;;;;;;6.91;79.26;99968.59;1650442;85;20414;-78
2021/03/15 10:33:58;;;;;;;;;;;;;;;6.97;79.30;99973.66;1647545;85;20302;-78
2021/03/15 10:36:43;;;;;;;;;;;;;;;6.99;79.23;99973.64;1653930;85;20310;-79
2021/03/15 10:39:27;;;;;;;;;;;;;;;7.05;79.23;99968.44;1652535;85;20674;-78
2021/03/15 10:42:12;;;;;;;;;;;;;;;7.09;79.21;99967.97;1652178;83;20321;-78
2021/03/15 10:44:57;;;;;;;;;;;;;;;7.08;79.01;99964.98;1692636;83;20534;-78
2021/03/15 10:47:42;;;;;;;;;;;;;;;7.03;79.05;99962.46;1669383;83;20340;-79
2021/03/15 10:50:32;;;;;;;;;;;;;;;7.05;78.98;99966.30;1688363;83;20345;-79
2021/03/15 10:53:18;;;;;;;;;;;;;;;7.03;78.86;99961.17;1689095;83;20288;-78
2021/03/15 10:56:05;;;;;;;;;;;;;;;7.03;79.01;99958.60;1689146;83;20288;-78
2021/03/15 10:58:49;;;;;;;;;;;;;;;7.04;78.85;99960.73;1689919;83;20321;-79
2021/03/15 11:01:34;;;;;;;;;;;;;;;6.97;78.75;99953.10;1690051;83;20301;-78
2021/03/15 11:04:19;;;;;;;;;;;;;;;6.99;78.77;99954.38;1688131;83;20697;-78
2021/03/15 11:07:26;;;;;;;;;;;;;;;6.96;78.78;99959.55;1667499;83;20271;-78
2021/03/15 11:10:17;;;;;;;;;;;;;;;6.98;78.80;99947.53;1690819;83;20245;-78
2021/03/15 11:13:05;;;;;;;;;;;;;;;7.05;78.93;99945.30;1695843;83;20253;-78
2021/03/15 11:15:49;;;;;;;;;;;;;;;7.15;78.91;99936.60;1686321;83;20293;-78
2021/03/15 11:18:34;;;;;;;;;;;;;;;7.28;78.94;99934.25;1690496;83;20313;-78
2021/03/15 11:21:18;;;;;;;;;;;;;;;7.39;78.76;99927.68;1688944;83;20286;-78
2021/03/15 11:24:04;;;;;;;;;;;;;;;7.43;78.62;99922.06;1691628;83;20353;-79
2021/03/15 11:26:50;;;;;;;;;;;;;;;7.47;78.45;99918.13;1692639;83;20340;-79
2021/03/15 11:29:41;;;;;;;;;;;;;;;7.47;78.44;99912.14;1693864;83;20242;-79
2021/03/15 11:32:26;;;;;;;;;;;;;;;7.44;78.38;99911.75;1689348;83;20264;-79
2021/03/15 11:35:22;;;;;;;;;;;;;;;7.43;78.44;99907.91;1691598;83;20159;-79
2021/03/15 11:38:07;;;;;;;;;;;;;;;7.45;78.45;99907.02;1693291;83;20281;-80
2021/03/15 11:40:52;;;;;;;;;;;;;;;7.44;78.18;99902.74;1667431;83;20346;-79
2021/03/15 11:43:37;;;;;;;;;;;;;;;7.47;78.27;99904.42;1699718;83;20290;-79
2021/03/15 11:46:22;;;;;;;;;;;;;;;7.49;78.19;99902.24;1695384;83;20234;-79
2021/03/15 11:49:07;;;;;;;;;;;;;;;7.54;78.23;99906.03;1693724;83;20573;-79
2021/03/15 11:51:55;;;;;;;;;;;;;;;7.57;78.16;99906.84;1685901;83;20405;-80
2021/03/15 11:54:39;;;;;;;;;;;;;;;7.56;77.95;99906.86;1685368;83;20275;-79
2021/03/15 11:57:24;;;;;;;;;;;;;;;7.56;77.93;99901.72;1690338;83;20270;-79
2021/03/15 12:00:14;;;;;;;;;;;;;;;7.52;77.89;99899.63;1697594;83;20266;-80
2021/03/15 12:03:01;;;;;;;;;;;;;;;7.53;77.93;99903.05;1706067;83;20544;-79
2021/03/15 12:05:45;;;;;;;;;;;;;;;7.50;77.90;99900.08;1693831;83;20504;-79
2021/03/15 12:08:29;;;;;;;;;;;;;;;7.45;77.72;99896.73;1672406;83;20289;-78
2021/03/15 12:11:14;;;;;;;;;;;;;;;7.40;77.74;99892.52;1694081;83;20276;-79
2021/03/15 12:13:58;;;;;;;;;;;;;;;7.31;77.56;99890.93;1688488;83;20257;-78
2021/03/15 12:16:43;;;;;;;;;;;;;;;7.25;77.65;99892.34;1690789;83;20440;-78
2021/03/15 12:19:27;;;;;;;;;;;;;;;7.19;77.60;99887.28;1682178;83;20329;-75
2021/03/15 12:22:12;;;;;;;;;;;;;;;7.15;77.52;99885.19;1644363;85;20677;-75
2021/03/15 12:24:57;;;;;;;;;;;;;;;7.11;77.46;99878.82;1690359;83;20317;-75
2021/03/15 12:27:42;;;;;;;;;;;;;;;7.03;77.45;99881.49;1692547;83;20319;-75
2021/03/15 12:30:27;;;;;;;;;;;;;;;7.03;77.47;99879.36;1684031;83;20672;-75
2021/03/15 12:33:11;;;;;;;;;;;;;;;7.05;77.44;99885.33;1664336;83;20681;-75
2021/03/15 12:35:56;;;;;;;;;;;;;;;7.09;77.47;99885.27;1691899;83;20424;-75
2021/03/15 12:38:40;;;;;;;;;;;;;;;7.15;77.44;99880.04;1686973;83;20668;-75
2021/03/15 12:41:25;;;;;;;;;;;;;;;7.21;77.35;99873.97;1692726;83;20304;-75
2021/03/15 12:44:10;;;;;;;;;;;;;;;7.26;77.33;99878.61;1689722;82;20799;-75
2021/03/15 12:46:55;;;;;;;;;;;;;;;7.31;77.28;99879.36;1687502;83;20392;-75
2021/03/15 12:49:40;;;;;;;;;;;;;;;7.36;77.19;99880.14;1691338;83;20317;-75
2021/03/15 12:52:27;;;;;;;;;;;;;;;7.39;77.05;99884.39;1689984;83;20301;-76
2021/03/15 12:55:12;;;;;;;;;;;;;;;7.38;76.94;99891.26;1692789;83;21254;-76
2021/03/15 12:57:56;;;;;;;;;;;;;;;7.35;76.86;99913.59;1685617;83;20301;-75
2021/03/15 13:00:41;;;;;;;;;;;;;;;7.18;76.63;99919.00;1691467;83;20419;-75
2021/03/15 13:03:27;;;;;;;;;;;;;;;6.96;76.75;99928.70;1693545;83;20306;-75
2021/03/15 13:06:11;;;;;;;;;;;;;;;6.71;76.87;99928.61;1692085;83;20289;-75
2021/03/15 13:08:56;;;;;;;;;;;;;;;6.45;76.99;99934.02;1687148;83;21251;-76
2021/03/15 13:11:40;;;;;;;;;;;;;;;6.29;77.29;99934.16;1691961;83;20305;-75
2021/03/15 13:14:26;;;;;;;;;;;;;;;6.16;77.52;99920.20;1686196;84;20301;-76
2021/03/15 13:17:11;;;;;;;;;;;;;;;6.12;77.65;99918.53;1689144;83;20566;-76
2021/03/15 13:19:55;;;;;;;;;;;;;;;6.07;77.70;99906.17;1687453;83;20306;-76
2021/03/15 13:22:41;;;;;;;;;;;;;;;6.12;77.83;99903.13;1678784;83;20388;-76
2021/03/15 13:25:25;;;;;;;;;;;;;;;6.20;77.92;99903.91;1678843;83;20321;-75
2021/03/15 13:28:10;;;;;;;;;;;;;;;6.22;77.76;99899.61;1682064;83;20306;-75
2021/03/15 13:30:55;;;;;;;;;;;;;;;6.23;77.80;99897.03;1669809;84;20302;-76
2021/03/15 13:33:39;;;;;;;;;;;;;;;6.26;78.00;99898.69;1697389;84;20283;-76
2021/03/15 13:36:24;;;;;;;;;;;;;;;6.30;77.91;99900.35;1685833;83;337718;-75
2021/03/15 13:39:09;;;;;;;;;;;;;;;6.34;77.98;99892.19;1688966;83;20259;-76
2021/03/15 13:41:54;;;;;;;;;;;;;;;6.40;77.96;99897.26;1686588;83;20449;-75
2021/03/15 13:44:38;;;;;;;;;;;;;;;6.43;77.93;99894.66;1711718;83;20256;-75
2021/03/15 13:47:22;;;;;;;;;;;;;;;6.45;77.90;99891.64;1703601;83;20167;-75
2021/03/15 13:50:07;;;;;;;;;;;;;;;6.45;77.88;99893.78;1702785;83;20411;-75
2021/03/15 13:52:51;;;;;;;;;;;;;;;6.49;77.92;99893.31;1697535;83;20255;-75
2021/03/15 13:55:36;;;;;;;;;;;;;;;6.52;77.94;99895.41;1701476;83;20206;-75
2021/03/15 13:58:20;;;;;;;;;;;;;;;6.55;77.93;99894.53;1705770;83;20476;-75
2021/03/15 14:01:04;;;;;;;;;;;;;;;6.58;77.93;99896.63;1701965;83;20869;-76
2021/03/15 14:03:49;;;;;;;;;;;;;;;6.61;77.90;99892.73;1714463;83;20497;-76
2021/03/15 14:06:33;;;;;;;;;;;;;;;6.64;77.91;99888.85;1703075;83;20265;-75
2021/03/15 14:09:17;;;;;;;;;;;;;;;6.69;77.88;99886.66;1705266;83;20473;-75
2021/03/15 14:12:02;;;;;;;;;;;;;;;6.70;77.95;99887.08;1701340;83;20271;-75
2021/03/15 14:14:46;;;;;;;;;;;;;;;6.75;77.97;99887.44;1699788;83;20480;-75
2021/03/15 14:17:31;;;;;;;;;;;;;;;6.76;77.85;99884.44;1697382;83;20557;-76
2021/03/15 14:20:15;;;;;;;;;;;;;;;6.80;77.92;99880.93;1701640;83;20368;-76
2021/03/15 14:23:00;;;;;;;;;;;;;;;6.84;78.00;99878.74;1700333;83;20296;-76
2021/03/15 14:25:45;;;;;;;;;;;;;;;6.89;77.90;99879.53;1694199;83;20325;-75
2021/03/15 14:28:30;;;;;;;;;;;;;;;6.95;77.87;99880.74;1702580;83;20294;-75
2021/03/15 14:31:17;;;;;;;;;;;;;;;7.03;77.98;99880.64;1699207;83;20301;-75
2021/03/15 14:34:02;;;;;;;;;;;;;;;7.13;77.99;99881.78;1698798;83;20312;-75
2021/03/15 14:36:47;;;;;;;;;;;;;;;7.27;78.00;99879.87;1682666;83;20306;-76
2021/03/15 14:39:31;;;;;;;;;;;;;;;7.40;77.81;99875.80;1665022;84;20370;-76